Latest Weather Observations for Launceston Airport

IDT60801

Issued at 5:41 am EST Sunday 22 September 2019 (issued every 10 minutes, with the page automatically refreshed every 10 minutes)

About weather observations | Map of weather stations | Latest weather observations for TAS | Other Formats
Station Details ID: 091311 Name: LAUNCESTON AIRPORT Lat: -41.55 Lon: 147.22 Height: 166.9 m
Data from the previous 72 hours. | See also: Recent months at Launceston Airport
Date/Time
EST
Temp
°C
App
Temp
°C
Dew
Point
°C
Rel
Hum
%
Delta-T
°C
Wind Press
QNH
hPa
Press
MSL
hPa
Rain since
9am
mm
Dir  Spd
km/h
Gust
km/h
Spd
kts
Gust
kts
22/05:30am 3.6 -1.7 1.6 87 0.8 NNW 19 20 10 11 1014.7 1014.9 7.4
22/05:00am 4.5 -0.9 2.2 85 0.9 NNW 20 24 11 13 1014.2 1014.4 7.4
22/04:30am 5.0 -0.3 3.0 87 0.8 NNW 20 24 11 13 1013.9 1014.1 7.4
22/04:00am 4.9 -0.8 2.9 87 0.8 NNW 22 28 12 15 1013.7 1013.9 7.4
22/03:30am 4.8 -1.7 2.8 87 0.8 NNW 26 32 14 17 1013.5 1013.7 7.4
22/03:00am 4.8 -1.3 3.0 88 0.7 NNW 24 28 13 15 1013.1 1013.3 7.4
22/02:30am 4.7 -0.4 2.9 88 0.7 NNW 19 22 10 12 1012.8 1013.0 7.4
22/02:00am 4.4 -0.9 2.8 89 0.7 NNW 20 24 11 13 1012.5 1012.7 7.4
22/01:30am 5.0 -0.3 3.2 88 0.7 NNW 20 24 11 13 1012.1 1012.3 7.4
22/01:00am 5.3 0.3 3.5 88 0.8 NNW 19 24 10 13 1012.1 1012.3 7.4
22/12:30am 4.7 0.4 3.0 89 0.7 NNW 15 19 8 10 1011.8 1012.1 7.4
22/12:00am 5.4 0.5 3.9 90 0.6 NNW 19 22 10 12 1011.3 1011.5 7.4
 
Date/Time
EST
Temp
°C
App
Temp
°C
Dew
Point
°C
Rel
Hum
%
Delta-T
°C
Wind Press
QNH
hPa
Press
MSL
hPa
Rain since
9am
mm
Dir  Spd
km/h
Gust
km/h
Spd
kts
Gust
kts
21/11:30pm 5.6 0.5 4.2 91 0.6 NNW 20 22 11 12 1010.8 1011.0 7.4
21/11:00pm 6.2 1.2 4.7 90 0.7 NNW 20 24 11 13 1010.4 1010.6 7.4
21/10:30pm 7.0 1.4 5.2 88 0.8 NNW 24 30 13 16 1010.0 1010.2 7.4
21/10:00pm 7.4 1.0 5.4 87 0.9 N 28 35 15 19 1009.9 1010.1 7.4
21/09:30pm 7.6 1.2 5.1 84 1.1 NNW 28 35 15 19 1009.5 1009.7 7.4
21/09:00pm 7.8 1.7 4.9 82 1.3 NNW 26 33 14 18 1009.0 1009.2 7.4
21/08:30pm 8.5 1.5 6.0 84 1.2 NNW 32 41 17 22 1008.3 1008.5 7.4
21/08:00pm 8.8 1.3 6.3 84 1.2 NNW 35 48 19 26 1007.4 1007.6 7.4
21/07:30pm 9.3 1.2 6.9 85 1.1 N 39 54 21 29 1006.5 1006.6 7.4
21/07:00pm 10.0 2.5 7.8 86 1.1 N 37 46 20 25 1006.0 1006.1 7.4
21/06:46pm 10.2 1.9 7.6 84 1.3 N 41 54 22 29 1005.5 1005.7 7.4
21/06:38pm 10.4 2.4 7.6 83 1.4 N 39 57 21 31 1005.3 1005.5 7.4
21/06:30pm 10.4 2.0 7.5 82 1.4 N 41 57 22 31 1004.9 1005.1 7.4
21/06:00pm 10.8 2.5 7.9 82 1.4 N 41 54 22 29 1004.2 1004.4 7.4
21/05:54pm 11.0 3.2 8.1 82 1.4 N 39 57 21 31 1004.2 1004.4 7.4
21/05:45pm 11.4 3.3 8.8 84 1.3 N 41 56 22 30 1004.2 1004.4 7.4
21/05:30pm 11.6 3.7 9.3 86 1.2 N 41 54 22 29 1004.3 1004.5 7.4
21/05:14pm 11.8 4.4 9.9 88 1.0 N 39 59 21 32 1004.2 1004.4 7.4
21/05:00pm 11.9 5.0 10.3 90 0.8 NNW 37 50 20 27 1004.4 1004.6 7.4
21/04:30pm 11.9 4.9 10.0 88 1.0 N 37 50 20 27 1004.3 1004.5 7.4
21/04:07pm 12.0 5.2 10.7 92 0.7 N 37 52 20 28 1004.3 1004.5 7.4
21/04:00pm 12.2 6.2 10.9 92 0.7 NNW 33 46 18 25 1004.3 1004.5 7.0
21/03:57pm 12.3 6.0 11.0 92 0.7 NNW 35 48 19 26 1003.9 1004.1 7.0
21/03:49pm 12.5 4.1 11.1 91 0.7 NNW 46 65 25 35 1004.1 1004.3 6.8
21/03:48pm 12.6 3.8 11.0 90 0.8 NNW 48 65 26 35 1004.1 1004.3 6.8
21/03:33pm 13.3 5.6 11.4 88 1.0 N 43 69 23 37 1003.7 1003.9 6.4
21/03:30pm 13.4 7.2 11.5 88 1.0 N 35 63 19 34 1003.5 1003.7 6.4
21/03:29pm 13.4 7.8 11.6 89 1.0 NNW 32 61 17 33 1003.5 1003.7 6.4
21/03:28pm 13.4 8.6 11.8 90 0.9 NNW 28 59 15 32 1003.4 1003.6 6.4
21/03:07pm 13.4 10.3 12.3 93 0.6 NNW 20 26 11 14 1003.4 1003.6 6.4
21/03:00pm 13.1 9.9 12.0 93 0.6 N 20 26 11 14 1003.5 1003.7 6.4
21/02:45pm 13.0 9.0 11.7 92 0.7 NNW 24 32 13 17 1003.9 1004.1 5.6
21/02:30pm 13.2 9.2 11.8 91 0.8 N 24 32 13 17 1004.0 1004.2 4.4
21/02:00pm 13.8 9.8 11.8 88 1.1 N 24 35 13 19 1004.7 1004.9 3.0
21/01:42pm 14.2 9.2 12.1 87 1.1 N 30 41 16 22 1004.9 1005.1 2.4
21/01:30pm 14.7 9.4 12.4 86 1.3 NNW 32 44 17 24 1005.0 1005.2 2.0
21/01:00pm 15.3 11.2 12.6 84 1.5 NNW 26 35 14 19 1004.3 1004.5 1.4
21/12:45pm 15.7 10.2 12.6 82 1.7 NNW 33 44 18 24 1004.6 1004.8 1.4
21/12:31pm 16.6 12.0 12.2 75 2.4 N 28 39 15 21 1004.7 1004.9 0.8
21/12:30pm 16.7 12.1 12.3 75 2.4 N 28 39 15 21 1004.7 1004.9 0.8
21/12:00pm 19.8 15.4 11.8 60 4.5 N 26 43 14 23 1004.6 1004.8 0.0
21/11:30am 19.4 17.5 11.7 61 4.3 NW 13 22 7 12 1005.1 1005.3 0.0
21/11:00am 17.3 14.3 11.8 70 3.0 SW 19 30 10 16 1006.0 1006.1 0.0
21/10:30am 16.6 14.5 11.1 70 3.0 SW 13 19 7 10 1006.7 1006.9 0.0
21/10:00am 16.2 14.9 12.4 78 2.1 SSW 11 19 6 10 1007.2 1007.4 0.0
21/09:30am 15.4 14.1 11.2 76 2.3 S 9 13 5 7 1007.7 1007.9 0.0
21/09:00am 14.9 14.2 11.9 82 1.6 SW 7 11 4 6 1008.5 1008.7 0.0
21/08:30am 12.7 10.8 10.4 86 1.2 S 11 13 6 7 1008.3 1008.5 0.0
21/08:00am 12.0 11.1 10.7 92 0.7 SSE 6 9 3 5 1008.4 1008.6 0.0
21/07:30am 10.7 8.2 9.6 93 0.6 SSW 13 17 7 9 1008.7 1008.9 0.0
21/07:00am 9.9 6.1 9.0 94 0.4 SW 19 22 10 12 1009.0 1009.2 0.0
21/06:30am 10.1 7.4 8.9 92 0.6 SSW 13 15 7 8 1009.2 1009.4 0.0
21/06:00am 11.5 9.0 9.8 89 0.9 SSE 13 17 7 9 1009.3 1009.5 0.0
21/05:30am 11.1 9.3 9.4 89 0.9 SSW 9 15 5 8 1009.4 1009.6 0.0
21/05:00am 10.2 7.2 9.4 95 0.4 SSW 15 17 8 9 1009.7 1009.9 0.0
21/04:30am 8.5 5.5 7.7 95 0.4 SE 13 15 7 8 1009.7 1009.9 0.0
21/04:00am 9.0 6.5 8.1 94 0.4 SSE 11 13 6 7 1010.4 1010.6 0.0
21/03:30am 9.7 8.7 8.8 94 0.4 SSE 4 9 2 5 1011.0 1011.2 0.0
21/03:00am 9.5 7.1 8.7 95 0.4 S 11 13 6 7 1011.5 1011.8 0.0
21/02:30am 9.6 7.6 8.5 93 0.5 S 9 9 5 5 1012.1 1012.3 0.0
21/02:00am 9.4 6.9 8.3 93 0.5 SSE 11 15 6 8 1012.5 1012.7 0.0
21/01:30am 9.2 7.3 7.5 89 0.8 SSE 7 9 4 5 1013.1 1013.3 0.0
21/01:00am 11.0 10.9 9.6 91 0.7 CALM 0 0 0 0 1013.8 1014.0 0.0
21/12:30am 10.5 8.9 8.8 89 0.8 N 7 9 4 5 1014.0 1014.2 0.0
21/12:00am 11.9 10.1 9.3 84 1.3 WNW 9 13 5 7 1014.4 1014.6 0.0
 
Date/Time
EST
Temp
°C
App
Temp
°C
Dew
Point
°C
Rel
Hum
%
Delta-T
°C
Wind Press
QNH
hPa
Press
MSL
hPa
Rain since
9am
mm
Dir  Spd
km/h
Gust
km/h
Spd
kts
Gust
kts
20/11:30pm 13.1 10.8 10.3 83 1.5 W 13 15 7 8 1014.6 1014.8 0.0
20/11:00pm 12.9 10.6 10.4 85 1.3 WSW 13 17 7 9 1015.0 1015.2 0.0
20/10:30pm 12.6 10.9 10.0 84 1.3 SSW 9 11 5 6 1015.5 1015.7 0.0
20/10:00pm 11.5 9.8 8.5 82 1.5 ESE 7 15 4 8 1015.5 1015.7 0.0
20/09:30pm 12.4 10.5 9.2 81 1.6 SE 9 11 5 6 1015.6 1015.8 0.0
20/09:00pm 14.1 11.7 9.9 76 2.2 W 13 17 7 9 1015.7 1015.9 0.0
20/08:30pm 14.6 12.2 10.2 75 2.3 WNW 13 17 7 9 1015.9 1016.1 0.0
20/08:00pm 14.7 12.9 9.3 70 2.8 W 9 15 5 8 1015.8 1016.0 0.0
20/07:30pm 15.5 13.0 9.8 69 3.0 WNW 13 17 7 9 1015.8 1016.0 0.0
20/07:00pm 15.8 13.7 9.9 68 3.1 W 11 13 6 7 1015.9 1016.1 0.0
20/06:30pm 17.0 15.4 10.1 64 3.7 NW 9 17 5 9 1015.8 1016.0 0.0
20/06:00pm 17.7 14.2 10.3 62 4.0 N 19 24 10 13 1015.6 1015.8 0.0
20/05:30pm 18.4 14.5 10.8 61 4.1 N 22 28 12 15 1015.5 1015.7 0.0
20/05:00pm 18.6 15.2 11.2 62 4.1 N 20 28 11 15 1015.6 1015.8 0.0
20/04:30pm 18.8 15.7 11.6 63 4.0 NNW 19 24 10 13 1015.6 1015.8 0.0
20/04:00pm 19.4 16.0 11.4 60 4.4 NNW 20 26 11 14 1015.6 1015.8 0.0
20/03:30pm 20.6 16.6 10.4 52 5.6 NNW 22 28 12 15 1015.9 1016.1 0.0
20/03:00pm 20.6 17.0 10.4 52 5.6 NNW 20 28 11 15 1015.9 1016.1 0.0
20/02:30pm 22.2 17.9 10.7 48 6.4 NNW 24 32 13 17 1016.3 1016.5 0.0
20/02:00pm 22.2 18.0 11.0 49 6.2 NNW 24 30 13 16 1016.5 1016.8 0.0
20/01:30pm 22.3 17.9 11.7 51 6.0 NNW 26 32 14 17 1016.8 1017.1 0.0
20/01:00pm 22.8 19.8 11.8 50 6.2 NNW 19 30 10 16 1017.2 1017.5 0.0
20/12:30pm 22.3 19.6 12.8 55 5.5 NW 19 26 10 14 1017.6 1017.9 0.0
20/12:00pm 21.2 18.1 12.1 56 5.1 NNW 20 26 11 14 1018.2 1018.4 0.0
20/11:30am 20.6 17.0 11.8 57 4.9 NNW 22 28 12 15 1018.5 1018.7 0.0
20/11:00am 19.6 16.2 11.4 59 4.5 NNW 20 26 11 14 1019.0 1019.2 0.0
20/10:30am 20.0 17.2 11.5 58 4.7 NW 17 24 9 13 1019.1 1019.3 0.0
20/10:00am 19.0 16.7 11.6 62 4.1 NNW 15 20 8 11 1019.2 1019.4 0.0
20/09:30am 18.0 15.9 11.1 64 3.8 NNW 13 19 7 10 1019.3 1019.5 0.0
20/09:00am 17.3 16.0 12.4 73 2.7 NW 11 15 6 8 1019.7 1019.9 0.0
20/08:30am 15.8 14.3 11.8 77 2.2 NW 11 15 6 8 1019.8 1020.0 0.0
20/08:00am 13.8 13.3 12.0 89 1.0 N 6 7 3 4 1020.1 1020.3 0.0
20/07:30am 12.8 10.8 11.5 92 0.7 WNW 13 17 7 9 1020.1 1020.3 0.0
20/07:00am 12.2 10.2 11.6 96 0.3 W 13 17 7 9 1019.7 1019.9 0.0
20/06:30am 10.9 9.7 10.3 96 0.3 W 7 9 4 5 1019.4 1019.6 0.0
20/06:28am 10.2 8.8 9.4 95 0.4 W 7 11 4 6 1019.4 1019.6 0.0
20/06:12am 9.2 8.4 8.0 92 0.6 NW 2 6 1 3 1019.4 1019.6 0.0
20/06:00am 10.8 9.7 10.0 95 0.4 NNE 6 7 3 4 1019.3 1019.5 0.0
20/05:30am 11.2 9.6 10.3 94 0.5 NNW 9 13 5 7 1019.1 1019.3 0.0
20/05:00am 10.4 9.1 9.3 93 0.6 NW 6 7 3 4 1019.1 1019.3 0.0
20/04:30am 11.4 9.2 10.8 96 0.3 W 13 17 7 9 1018.9 1019.1 0.0
20/04:00am 10.3 10.2 9.5 95 0.4 CALM 0 0 0 0 1018.8 1019.0 0.0
20/03:54am 10.3 10.2 9.5 95 0.4 CALM 0 0 0 0 1018.9 1019.1 0.0
20/03:30am 9.7 8.0 8.5 92 0.6 NE 7 15 4 8 1018.8 1019.0 0.0
20/03:00am 11.5 10.4 9.9 90 0.8 N 6 9 3 5 1019.0 1019.2 0.0
20/02:30am 12.7 9.9 11.3 91 0.7 W 17 20 9 11 1019.1 1019.3 0.0
20/02:00am 12.1 9.8 10.5 90 0.8 WSW 13 15 7 8 1019.2 1019.4 0.0
20/01:30am 12.1 9.3 10.0 87 1.1 W 15 19 8 10 1019.5 1019.7 0.0
20/01:00am 12.4 9.6 10.1 86 1.2 W 15 19 8 10 1020.0 1020.2 0.0
20/12:30am 12.6 10.1 9.6 82 1.5 NNW 13 20 7 11 1020.2 1020.4 0.0
20/12:00am 13.1 9.8 9.7 80 1.7 NNW 17 24 9 13 1020.2 1020.4 0.0
 
Date/Time
EST
Temp
°C
App
Temp
°C
Dew
Point
°C
Rel
Hum
%
Delta-T
°C
Wind Press
QNH
hPa
Press
MSL
hPa
Rain since
9am
mm
Dir  Spd
km/h
Gust
km/h
Spd
kts
Gust
kts
19/11:30pm 13.3 9.2 10.1 81 1.7 NNW 22 30 12 16 1020.4 1020.6 0.0
19/11:00pm 12.0 8.9 9.0 82 1.5 NW 15 20 8 11 1020.3 1020.5 0.0
19/10:30pm 12.6 9.3 9.6 82 1.5 N 17 24 9 13 1020.4 1020.6 0.0
19/10:00pm 13.1 9.8 9.5 79 1.8 NW 17 20 9 11 1020.6 1020.8 0.0
19/09:30pm 14.0 9.1 9.8 76 2.2 N 26 33 14 18 1020.4 1020.6 0.0
19/09:00pm 13.9 9.3 9.7 76 2.2 N 24 33 13 18 1020.2 1020.4 0.0
19/08:30pm 13.1 8.8 9.2 77 2.0 NNW 22 32 12 17 1020.3 1020.5 0.0
19/08:00pm 13.1 9.1 9.0 76 2.1 NNW 20 26 11 14 1020.3 1020.5 0.0
19/07:30pm 12.7 9.2 8.8 77 2.0 NNW 17 26 9 14 1020.3 1020.5 0.0
19/07:00pm 13.6 9.5 8.7 72 2.5 N 20 26 11 14 1020.2 1020.4 0.0
19/06:30pm 14.3 9.8 8.5 68 2.9 N 22 33 12 18 1020.3 1020.5 0.0
19/06:00pm 13.5 9.9 6.6 63 3.3 NNW 15 20 8 11 1020.3 1020.5 0.0
19/05:30pm 15.1 11.3 5.6 53 4.6 NNW 15 24 8 13 1020.3 1020.5 0.0
19/05:00pm 16.5 11.2 5.2 47 5.4 NNW 22 28 12 15 1020.4 1020.6 0.0
19/04:30pm 17.2 10.3 4.5 43 6.1 NNW 30 37 16 20 1020.6 1020.8 0.0
19/04:00pm 17.7 11.3 5.3 44 6.0 N 28 37 15 20 1020.8 1021.0 0.0
19/03:30pm 18.0 11.2 5.2 43 6.2 N 30 37 16 20 1020.9 1021.1 0.0
19/03:00pm 18.3 11.2 6.2 45 6.0 N 33 43 18 23 1021.0 1021.2 0.0
19/02:30pm 18.6 11.0 5.8 43 6.3 NNW 35 43 19 23 1021.0 1021.2 0.0
19/02:00pm 19.0 12.2 7.1 46 6.0 NNW 32 44 17 24 1021.3 1021.5 0.0
19/01:30pm 19.4 13.6 7.8 47 6.0 N 28 37 15 20 1021.6 1021.9 0.0
19/01:00pm 19.5 14.5 7.9 47 6.0 N 24 33 13 18 1021.8 1022.1 0.0
19/12:30pm 18.2 15.5 5.4 43 6.3 N 9 19 5 10 1022.3 1022.6 0.0
19/12:00pm 17.6 14.5 7.4 51 5.2 NNW 13 22 7 12 1022.9 1023.2 0.0
19/11:30am 17.0 12.4 6.5 50 5.2 NNW 20 26 11 14 1023.6 1023.9 0.0
19/11:00am 16.8 13.3 7.4 54 4.7 NNW 15 20 8 11 1024.1 1024.4 0.0
19/10:30am 14.8 12.5 7.6 62 3.6 WNW 9 15 5 8 1024.7 1024.9 0.0
19/10:00am 14.3 11.9 6.9 61 3.6 NW 9 15 5 8 1025.1 1025.3 0.0
19/09:30am 12.8 11.0 7.0 68 2.8 WNW 6 13 3 7 1025.4 1025.6 0.0
19/09:00am 11.5 10.1 7.4 76 2.0 SE 4 7 2 4 1025.8 1026.0 0.0
19/08:30am 10.1 8.1 7.2 82 1.4 ESE 7 9 4 5 1025.9 1026.1 0.0
19/08:00am 8.9 7.0 6.5 85 1.1 SE 6 7 3 4 1026.0 1026.2 0.0
19/07:30am 6.8 5.8 5.6 92 0.5 CALM 0 0 0 0 1025.9 1026.1 0.0
19/07:00am 4.7 3.4 4.0 95 0.3 CALM 0 0 0 0 1025.9 1026.1 0.0
19/06:30am 2.6 0.9 1.9 95 0.3 CALM 0 0 0 0 1025.8 1026.0 0.0
19/06:00am 1.9 0.1 1.2 95 0.3 CALM 0 0 0 0 1025.7 1025.9 0.0

Other formats

Comma delimited format used in spreadsheet applications
http://www.bom.gov.au/fwo/IDT60801/IDT60801.95966.axf

JavaScript Object Notation format (JSON) in row-major order
http://www.bom.gov.au/fwo/IDT60801/IDT60801.95966.json

Data quality

Most of these data are generated automatically and are frequently updated. Quality checks on data are not normally performed. It is possible for incorrect values to appear. Refer to information at About Latest Weather Observations and please check the disclaimer before using these data.